sensor_id;sensor_type;location;lat;lon;timestamp;pressure;altitude;pressure_sealevel;temperature;humidity
13050;BME280;6591;51.446;5.404;2023-07-02T00:01:40;100419.06;;;23.80;49.18
13050;BME280;6591;51.446;5.404;2023-07-02T00:04:07;100411.09;;;23.78;49.37
13050;BME280;6591;51.446;5.404;2023-07-02T00:06:43;100412.28;;;23.76;48.65
13050;BME280;6591;51.446;5.404;2023-07-02T00:09:14;100405.16;;;23.75;48.94
13050;BME280;6591;51.446;5.404;2023-07-02T00:11:44;100410.88;;;23.72;48.68
13050;BME280;6591;51.446;5.404;2023-07-02T00:14:15;100403.78;;;23.71;49.10
13050;BME280;6591;51.446;5.404;2023-07-02T00:16:46;100408.69;;;23.67;49.16
13050;BME280;6591;51.446;5.404;2023-07-02T00:19:17;100410.72;;;23.65;49.14
13050;BME280;6591;51.446;5.404;2023-07-02T00:21:50;100406.47;;;23.62;49.34
13050;BME280;6591;51.446;5.404;2023-07-02T00:24:31;100415.59;;;23.61;49.08
13050;BME280;6591;51.446;5.404;2023-07-02T00:27:06;100410.72;;;23.65;49.00
13050;BME280;6591;51.446;5.404;2023-07-02T00:29:39;100407.47;;;23.61;49.06
13050;BME280;6591;51.446;5.404;2023-07-02T00:32:09;100409.31;;;23.61;49.08
13050;BME280;6591;51.446;5.404;2023-07-02T00:34:37;100415.59;;;23.61;48.90
13050;BME280;6591;51.446;5.404;2023-07-02T00:37:09;100411.03;;;23.62;48.75
13050;BME280;6591;51.446;5.404;2023-07-02T00:40:13;100410.38;;;23.60;48.77
13050;BME280;6591;51.446;5.404;2023-07-02T00:42:50;100405.44;;;23.63;48.85
13050;BME280;6591;51.446;5.404;2023-07-02T00:45:17;100399.34;;;23.61;49.34
13050;BME280;6591;51.446;5.404;2023-07-02T00:47:46;100392.22;;;23.60;48.59
13050;BME280;6591;51.446;5.404;2023-07-02T00:50:38;100397.63;;;23.60;48.86
13050;BME280;6591;51.446;5.404;2023-07-02T00:53:45;100413.22;;;23.58;48.98
13050;BME280;6591;51.446;5.404;2023-07-02T00:56:32;100418.50;;;23.60;49.08
13050;BME280;6591;51.446;5.404;2023-07-02T00:59:16;100416.94;;;23.57;48.42
13050;BME280;6591;51.446;5.404;2023-07-02T01:02:04;100409.16;;;23.54;48.62
13050;BME280;6591;51.446;5.404;2023-07-02T01:04:34;100414.56;;;23.54;48.45
13050;BME280;6591;51.446;5.404;2023-07-02T01:07:06;100412.88;;;23.53;48.98
13050;BME280;6591;51.446;5.404;2023-07-02T01:09:37;100418.59;;;23.50;48.49
13050;BME280;6591;51.446;5.404;2023-07-02T01:12:10;100419.25;;;23.44;48.36
13050;BME280;6591;51.446;5.404;2023-07-02T01:14:48;100426.16;;;23.39;48.93
13050;BME280;6591;51.446;5.404;2023-07-02T01:17:18;100416.34;;;23.38;48.90
13050;BME280;6591;51.446;5.404;2023-07-02T01:19:55;100424.94;;;23.33;48.73
13050;BME280;6591;51.446;5.404;2023-07-02T01:22:28;100428.66;;;23.32;48.69
13050;BME280;6591;51.446;5.404;2023-07-02T01:24:58;100434.25;;;23.31;48.63
13050;BME280;6591;51.446;5.404;2023-07-02T01:27:28;100430.31;;;23.25;48.77
13050;BME280;6591;51.446;5.404;2023-07-02T01:29:57;100442.16;;;23.24;48.56
13050;BME280;6591;51.446;5.404;2023-07-02T01:32:25;100436.75;;;23.24;48.84
13050;BME280;6591;51.446;5.404;2023-07-02T01:34:55;100432.34;;;23.23;48.82
13050;BME280;6591;51.446;5.404;2023-07-02T01:37:23;100435.22;;;23.21;49.22
13050;BME280;6591;51.446;5.404;2023-07-02T01:39:50;100434.38;;;23.21;48.80
13050;BME280;6591;51.446;5.404;2023-07-02T01:42:20;100441.63;;;23.20;48.66
13050;BME280;6591;51.446;5.404;2023-07-02T01:44:49;100440.97;;;23.18;48.53
13050;BME280;6591;51.446;5.404;2023-07-02T01:47:19;100438.41;;;23.17;48.78
13050;BME280;6591;51.446;5.404;2023-07-02T01:49:47;100439.56;;;23.14;48.97
13050;BME280;6591;51.446;5.404;2023-07-02T01:52:14;100445.47;;;23.10;48.79
13050;BME280;6591;51.446;5.404;2023-07-02T01:54:42;100450.88;;;23.10;48.67
13050;BME280;6591;51.446;5.404;2023-07-02T01:57:09;100441.06;;;23.09;49.18
13050;BME280;6591;51.446;5.404;2023-07-02T01:59:37;100446.31;;;23.10;48.80
13050;BME280;6591;51.446;5.404;2023-07-02T02:02:05;100452.91;;;23.08;49.01
13050;BME280;6591;51.446;5.404;2023-07-02T02:04:38;100444.94;;;23.06;49.26
13050;BME280;6591;51.446;5.404;2023-07-02T02:07:11;100448.81;;;23.04;48.93
13050;BME280;6591;51.446;5.404;2023-07-02T02:09:38;100452.38;;;23.04;49.10
13050;BME280;6591;51.446;5.404;2023-07-02T02:12:09;100452.69;;;23.01;48.93
13050;BME280;6591;51.446;5.404;2023-07-02T02:14:40;100443.72;;;23.01;49.15
13050;BME280;6591;51.446;5.404;2023-07-02T02:17:10;100454.84;;;22.98;48.90
13050;BME280;6591;51.446;5.404;2023-07-02T02:19:41;100454.84;;;22.98;48.97
13050;BME280;6591;51.446;5.404;2023-07-02T02:22:33;100453.19;;;22.97;49.01
13050;BME280;6591;51.446;5.404;2023-07-02T02:25:01;100450.47;;;22.97;48.98
13050;BME280;6591;51.446;5.404;2023-07-02T02:27:28;100447.91;;;22.95;48.81
13050;BME280;6591;51.446;5.404;2023-07-02T02:29:55;100460.94;;;22.92;48.91
13050;BME280;6591;51.446;5.404;2023-07-02T02:32:23;100459.53;;;22.88;49.12
13050;BME280;6591;51.446;5.404;2023-07-02T02:34:51;100453.44;;;22.86;49.04
13050;BME280;6591;51.446;5.404;2023-07-02T02:37:20;100459.47;;;22.79;48.80
13050;BME280;6591;51.446;5.404;2023-07-02T02:39:50;100453.69;;;22.74;49.14
13050;BME280;6591;51.446;5.404;2023-07-02T02:42:19;100456.72;;;22.71;49.05
13050;BME280;6591;51.446;5.404;2023-07-02T02:44:46;100468.81;;;22.67;49.22
13050;BME280;6591;51.446;5.404;2023-07-02T02:47:13;100462.34;;;22.60;49.35
13050;BME280;6591;51.446;5.404;2023-07-02T02:49:40;100457.69;;;22.53;48.90
13050;BME280;6591;51.446;5.404;2023-07-02T02:52:08;100460.03;;;22.48;49.35
13050;BME280;6591;51.446;5.404;2023-07-02T02:54:35;100468.91;;;22.40;49.46
13050;BME280;6591;51.446;5.404;2023-07-02T02:57:02;100472.94;;;22.36;49.40
13050;BME280;6591;51.446;5.404;2023-07-02T02:59:32;100470.84;;;22.30;49.38
13050;BME280;6591;51.446;5.404;2023-07-02T03:01:59;100482.97;;;22.26;49.79
13050;BME280;6591;51.446;5.404;2023-07-02T03:04:27;100486.28;;;22.20;49.46
13050;BME280;6591;51.446;5.404;2023-07-02T03:06:55;100487.75;;;22.14;49.74
13050;BME280;6591;51.446;5.404;2023-07-02T03:09:24;100499.75;;;22.12;49.39
13050;BME280;6591;51.446;5.404;2023-07-02T03:11:51;100502.34;;;22.04;49.77
13050;BME280;6591;51.446;5.404;2023-07-02T03:14:19;100503.81;;;21.98;49.63
13050;BME280;6591;51.446;5.404;2023-07-02T03:16:46;100500.66;;;21.93;49.48
13050;BME280;6591;51.446;5.404;2023-07-02T03:19:14;100512.94;;;21.87;50.02
13050;BME280;6591;51.446;5.404;2023-07-02T03:21:46;100515.25;;;21.82;49.82
13050;BME280;6591;51.446;5.404;2023-07-02T03:24:21;100521.94;;;21.78;50.30
13050;BME280;6591;51.446;5.404;2023-07-02T03:27:03;100510.44;;;21.76;50.05
13050;BME280;6591;51.446;5.404;2023-07-02T03:29:54;100516.00;;;21.75;50.12
13050;BME280;6591;51.446;5.404;2023-07-02T03:32:21;100521.25;;;21.76;50.18
13050;BME280;6591;51.446;5.404;2023-07-02T03:34:52;100516.00;;;21.75;50.08
13050;BME280;6591;51.446;5.404;2023-07-02T03:37:25;100517.84;;;21.74;50.53
13050;BME280;6591;51.446;5.404;2023-07-02T03:40:08;100524.81;;;21.77;50.55
13050;BME280;6591;51.446;5.404;2023-07-02T03:42:45;100532.22;;;21.75;50.28
13050;BME280;6591;51.446;5.404;2023-07-02T03:45:16;100524.63;;;21.78;50.16
13050;BME280;6591;51.446;5.404;2023-07-02T03:47:43;100522.94;;;21.77;50.39
13050;BME280;6591;51.446;5.404;2023-07-02T03:50:12;100529.06;;;21.79;50.09
13050;BME280;6591;51.446;5.404;2023-07-02T03:52:39;100528.19;;;21.79;49.77
13050;BME280;6591;51.446;5.404;2023-07-02T03:55:08;100531.75;;;21.79;49.77
13050;BME280;6591;51.446;5.404;2023-07-02T03:57:35;100536.44;;;21.77;50.10
13050;BME280;6591;51.446;5.404;2023-07-02T04:00:03;100536.75;;;21.74;49.55
13050;BME280;6591;51.446;5.404;2023-07-02T04:02:40;100543.34;;;21.72;49.57
13050;BME280;6591;51.446;5.404;2023-07-02T04:05:11;100545.31;;;21.70;50.10
13050;BME280;6591;51.446;5.404;2023-07-02T04:07:38;100540.34;;;21.65;49.66
13050;BME280;6591;51.446;5.404;2023-07-02T04:10:07;100546.63;;;21.66;49.81
13050;BME280;6591;51.446;5.404;2023-07-02T04:12:43;100545.34;;;21.60;50.01
13050;BME280;6591;51.446;5.404;2023-07-02T04:15:18;100548.06;;;21.60;49.81
13050;BME280;6591;51.446;5.404;2023-07-02T04:17:46;100547.88;;;21.62;50.22
13050;BME280;6591;51.446;5.404;2023-07-02T04:20:23;100545.34;;;21.60;50.02
13050;BME280;6591;51.446;5.404;2023-07-02T04:23:15;100551.63;;;21.61;50.12
13050;BME280;6591;51.446;5.404;2023-07-02T04:25:59;100559.28;;;21.65;49.96
13050;BME280;6591;51.446;5.404;2023-07-02T04:29:00;100557.25;;;21.67;49.87
13050;BME280;6591;51.446;5.404;2023-07-02T04:31:28;100552.97;;;21.74;49.57
13050;BME280;6591;51.446;5.404;2023-07-02T04:33:56;100551.84;;;21.77;49.95
13050;BME280;6591;51.446;5.404;2023-07-02T04:36:23;100554.22;;;21.80;49.85
13050;BME280;6591;51.446;5.404;2023-07-02T04:38:52;100555.81;;;21.82;49.60
13050;BME280;6591;51.446;5.404;2023-07-02T04:41:19;100559.19;;;21.84;49.56
13050;BME280;6591;51.446;5.404;2023-07-02T04:43:46;100555.34;;;21.87;49.54
13050;BME280;6591;51.446;5.404;2023-07-02T04:46:15;100559.59;;;21.89;49.98
13050;BME280;6591;51.446;5.404;2023-07-02T04:48:42;100563.59;;;21.95;49.66
13050;BME280;6591;51.446;5.404;2023-07-02T04:51:09;100563.31;;;21.98;49.52
13050;BME280;6591;51.446;5.404;2023-07-02T04:53:37;100561.84;;;22.04;49.63
13050;BME280;6591;51.446;5.404;2023-07-02T04:56:04;100568.50;;;22.09;49.66
13050;BME280;6591;51.446;5.404;2023-07-02T04:58:34;100573.75;;;22.11;49.31
13050;BME280;6591;51.446;5.404;2023-07-02T05:01:01;100573.16;;;22.17;49.64
13050;BME280;6591;51.446;5.404;2023-07-02T05:03:29;100569.88;;;22.23;49.51
13050;BME280;6591;51.446;5.404;2023-07-02T05:05:56;100577.38;;;22.29;49.39
13050;BME280;6591;51.446;5.404;2023-07-02T05:08:23;100574.63;;;22.38;49.24
13050;BME280;6591;51.446;5.404;2023-07-02T05:10:50;100573.53;;;22.49;49.15
13050;BME280;6591;51.446;5.404;2023-07-02T05:13:17;100576.19;;;22.59;48.75
13050;BME280;6591;51.446;5.404;2023-07-02T05:15:44;100584.22;;;22.68;48.48
13050;BME280;6591;51.446;5.404;2023-07-02T05:18:12;100585.19;;;22.77;48.30
13050;BME280;6591;51.446;5.404;2023-07-02T05:20:39;100590.84;;;22.84;47.89
13050;BME280;6591;51.446;5.404;2023-07-02T05:23:09;100592.06;;;22.89;47.55
13050;BME280;6591;51.446;5.404;2023-07-02T05:25:47;100599.91;;;22.92;47.40
13050;BME280;6591;51.446;5.404;2023-07-02T05:28:17;100601.97;;;22.98;47.19
13050;BME280;6591;51.446;5.404;2023-07-02T05:30:46;100611.34;;;23.04;47.17
13050;BME280;6591;51.446;5.404;2023-07-02T05:33:16;100601.91;;;23.08;47.01
13050;BME280;6591;51.446;5.404;2023-07-02T05:35:44;100603.97;;;23.14;46.92
13050;BME280;6591;51.446;5.404;2023-07-02T05:38:19;100614.75;;;23.23;46.47
13050;BME280;6591;51.446;5.404;2023-07-02T05:40:51;100602.81;;;23.34;46.62
13050;BME280;6591;51.446;5.404;2023-07-02T05:43:21;100609.69;;;23.46;46.68
13050;BME280;6591;51.446;5.404;2023-07-02T05:45:51;100612.00;;;23.59;46.31
13050;BME280;6591;51.446;5.404;2023-07-02T05:48:19;100624.97;;;23.73;46.04
13050;BME280;6591;51.446;5.404;2023-07-02T05:50:48;100614.00;;;23.83;45.65
13050;BME280;6591;51.446;5.404;2023-07-02T05:53:16;100613.88;;;23.92;45.99
13050;BME280;6591;51.446;5.404;2023-07-02T05:55:43;100618.03;;;24.04;45.51
13050;BME280;6591;51.446;5.404;2023-07-02T05:58:11;100619.94;;;24.12;45.40
13050;BME280;6591;51.446;5.404;2023-07-02T06:00:38;100628.16;;;24.20;45.23
13050;BME280;6591;51.446;5.404;2023-07-02T06:03:06;100630.22;;;24.26;44.88
13050;BME280;6591;51.446;5.404;2023-07-02T06:05:34;100628.56;;;24.33;44.70
13050;BME280;6591;51.446;5.404;2023-07-02T06:08:01;100634.16;;;24.40;44.54
13050;BME280;6591;51.446;5.404;2023-07-02T06:10:31;100631.13;;;24.43;44.15
13050;BME280;6591;51.446;5.404;2023-07-02T06:12:59;100642.00;;;24.51;43.97
13050;BME280;6591;51.446;5.404;2023-07-02T06:15:26;100638.81;;;24.56;43.69
13050;BME280;6591;51.446;5.404;2023-07-02T06:17:53;100644.09;;;24.65;43.94
13050;BME280;6591;51.446;5.404;2023-07-02T06:20:26;100644.28;;;24.72;43.30
13050;BME280;6591;51.446;5.404;2023-07-02T06:22:59;100643.13;;;24.82;43.28
13050;BME280;6591;51.446;5.404;2023-07-02T06:25:44;100634.53;;;24.95;43.26
13050;BME280;6591;51.446;5.404;2023-07-02T06:28:19;100637.94;;;25.05;42.74
13050;BME280;6591;51.446;5.404;2023-07-02T06:30:49;100642.53;;;25.13;42.32
13050;BME280;6591;51.446;5.404;2023-07-02T06:33:21;100652.72;;;25.19;41.67
13050;BME280;6591;51.446;5.404;2023-07-02T06:35:53;100648.66;;;25.23;42.22
13050;BME280;6591;51.446;5.404;2023-07-02T06:38:23;100649.69;;;25.30;42.17
13050;BME280;6591;51.446;5.404;2023-07-02T06:40:52;100651.88;;;25.35;41.83
13050;BME280;6591;51.446;5.404;2023-07-02T06:43:20;100657.00;;;25.38;41.45
13050;BME280;6591;51.446;5.404;2023-07-02T06:45:51;100662.59;;;25.44;41.22
13050;BME280;6591;51.446;5.404;2023-07-02T06:48:19;100658.69;;;25.47;41.34
13050;BME280;6591;51.446;5.404;2023-07-02T06:50:48;100659.88;;;25.52;40.98
13050;BME280;6591;51.446;5.404;2023-07-02T06:53:16;100659.25;;;25.58;41.31
13050;BME280;6591;51.446;5.404;2023-07-02T06:55:43;100677.41;;;25.66;40.68
13050;BME280;6591;51.446;5.404;2023-07-02T06:58:10;100671.47;;;25.70;40.22
13050;BME280;6591;51.446;5.404;2023-07-02T07:00:37;100679.78;;;25.77;40.52
13050;BME280;6591;51.446;5.404;2023-07-02T07:03:05;100683.53;;;25.84;40.85
13050;BME280;6591;51.446;5.404;2023-07-02T07:05:32;100684.03;;;25.96;40.16
13050;BME280;6591;51.446;5.404;2023-07-02T07:08:00;100685.53;;;26.06;40.29
13050;BME280;6591;51.446;5.404;2023-07-02T07:10:37;100683.81;;;26.13;40.09
13050;BME280;6591;51.446;5.404;2023-07-02T07:13:06;100688.91;;;26.25;40.30
13050;BME280;6591;51.446;5.404;2023-07-02T07:15:37;100689.06;;;26.31;39.95
13050;BME280;6591;51.446;5.404;2023-07-02T07:18:04;100693.31;;;26.34;39.38
13050;BME280;6591;51.446;5.404;2023-07-02T07:20:32;100694.00;;;26.36;39.26
13050;BME280;6591;51.446;5.404;2023-07-02T07:22:59;100691.28;;;26.36;38.70
13050;BME280;6591;51.446;5.404;2023-07-02T07:25:26;100691.44;;;26.34;38.99
13050;BME280;6591;51.446;5.404;2023-07-02T07:27:53;100706.06;;;26.33;37.82
13050;BME280;6591;51.446;5.404;2023-07-02T07:30:21;100700.81;;;26.32;38.50
13050;BME280;6591;51.446;5.404;2023-07-02T07:32:51;100701.31;;;26.35;38.58
13050;BME280;6591;51.446;5.404;2023-07-02T07:35:21;100707.78;;;26.42;39.08
13050;BME280;6591;51.446;5.404;2023-07-02T07:37:49;100720.16;;;26.53;38.66
13050;BME280;6591;51.446;5.404;2023-07-02T07:40:16;100722.00;;;26.61;38.23
13050;BME280;6591;51.446;5.404;2023-07-02T07:42:44;100724.19;;;26.65;37.29
13050;BME280;6591;51.446;5.404;2023-07-02T07:45:13;100713.81;;;26.69;38.13
13050;BME280;6591;51.446;5.404;2023-07-02T07:47:42;100726.69;;;26.75;37.55
13050;BME280;6591;51.446;5.404;2023-07-02T07:50:10;100730.59;;;26.80;38.00
13050;BME280;6591;51.446;5.404;2023-07-02T07:52:39;100714.41;;;26.87;37.72
13050;BME280;6591;51.446;5.404;2023-07-02T07:55:07;100726.44;;;27.01;37.58
13050;BME280;6591;51.446;5.404;2023-07-02T07:57:37;100724.53;;;27.09;37.09
13050;BME280;6591;51.446;5.404;2023-07-02T08:00:09;100732.84;;;27.16;36.42
13050;BME280;6591;51.446;5.404;2023-07-02T08:02:47;100728.03;;;27.18;36.23
13050;BME280;6591;51.446;5.404;2023-07-02T08:05:15;100730.75;;;27.18;35.79
13050;BME280;6591;51.446;5.404;2023-07-02T08:07:43;100729.06;;;27.17;35.81
13050;BME280;6591;51.446;5.404;2023-07-02T08:10:14;100723.59;;;27.17;35.65
13050;BME280;6591;51.446;5.404;2023-07-02T08:12:48;100737.78;;;27.12;36.02
13050;BME280;6591;51.446;5.404;2023-07-02T08:15:19;100740.81;;;27.17;36.34
13050;BME280;6591;51.446;5.404;2023-07-02T08:17:47;100734.00;;;27.21;36.54
13050;BME280;6591;51.446;5.404;2023-07-02T08:20:16;100743.13;;;27.28;35.93
13050;BME280;6591;51.446;5.404;2023-07-02T08:22:49;100734.25;;;27.34;36.30
13050;BME280;6591;51.446;5.404;2023-07-02T08:25:22;100731.94;;;27.46;35.97
13050;BME280;6591;51.446;5.404;2023-07-02T08:27:51;100736.81;;;27.59;35.64
13050;BME280;6591;51.446;5.404;2023-07-02T08:30:35;100747.00;;;27.65;34.59
13050;BME280;6591;51.446;5.404;2023-07-02T08:36:03;100754.03;;;27.82;35.10
13050;BME280;6591;51.446;5.404;2023-07-02T08:38:31;100760.47;;;27.89;35.15
13050;BME280;6591;51.446;5.404;2023-07-02T08:40:58;100759.53;;;27.97;35.07
13050;BME280;6591;51.446;5.404;2023-07-02T08:43:26;100748.72;;;28.03;35.39
13050;BME280;6591;51.446;5.404;2023-07-02T08:45:58;100758.91;;;28.09;35.33
13050;BME280;6591;51.446;5.404;2023-07-02T08:48:26;100757.44;;;28.21;34.55
13050;BME280;6591;51.446;5.404;2023-07-02T08:50:57;100751.63;;;28.25;34.34
13050;BME280;6591;51.446;5.404;2023-07-02T08:53:28;100752.28;;;28.27;33.91
13050;BME280;6591;51.446;5.404;2023-07-02T08:56:03;100764.16;;;28.34;33.44
13050;BME280;6591;51.446;5.404;2023-07-02T08:58:31;100755.50;;;28.30;33.76
13050;BME280;6591;51.446;5.404;2023-07-02T09:01:14;100753.81;;;28.29;33.64
13050;BME280;6591;51.446;5.404;2023-07-02T09:03:42;100751.53;;;28.33;33.57
13050;BME280;6591;51.446;5.404;2023-07-02T09:06:10;100749.28;;;28.36;33.30
13050;BME280;6591;51.446;5.404;2023-07-02T09:08:39;100764.56;;;28.45;33.48
13050;BME280;6591;51.446;5.404;2023-07-02T09:11:15;100752.59;;;28.46;33.09
13050;BME280;6591;51.446;5.404;2023-07-02T09:13:53;100758.69;;;28.48;33.17
13050;BME280;6591;51.446;5.404;2023-07-02T09:16:32;100767.13;;;28.47;32.57
13050;BME280;6591;51.446;5.404;2023-07-02T09:19:07;100759.28;;;28.44;32.34
13050;BME280;6591;51.446;5.404;2023-07-02T09:21:44;100763.81;;;28.37;31.73
13050;BME280;6591;51.446;5.404;2023-07-02T09:24:21;100763.03;;;28.28;31.64
13050;BME280;6591;51.446;5.404;2023-07-02T09:26:54;100764.25;;;28.26;32.17
13050;BME280;6591;51.446;5.404;2023-07-02T09:29:28;100763.75;;;28.22;32.62
13050;BME280;6591;51.446;5.404;2023-07-02T09:31:59;100755.41;;;28.23;32.04
13050;BME280;6591;51.446;5.404;2023-07-02T09:34:37;100755.22;;;28.25;31.70
13050;BME280;6591;51.446;5.404;2023-07-02T09:37:05;100753.97;;;28.28;31.43
13050;BME280;6591;51.446;5.404;2023-07-02T09:39:35;100749.66;;;28.33;31.57
13050;BME280;6591;51.446;5.404;2023-07-02T09:42:06;100751.47;;;28.41;31.47
13050;BME280;6591;51.446;5.404;2023-07-02T09:44:35;100751.34;;;28.49;31.67
13050;BME280;6591;51.446;5.404;2023-07-02T09:47:05;100754.38;;;28.54;31.07
13050;BME280;6591;51.446;5.404;2023-07-02T09:49:36;100756.75;;;28.57;31.00
13050;BME280;6591;51.446;5.404;2023-07-02T09:52:06;100757.22;;;28.60;31.26
13050;BME280;6591;51.446;5.404;2023-07-02T09:54:35;100762.50;;;28.62;31.72
13050;BME280;6591;51.446;5.404;2023-07-02T09:57:04;100764.38;;;28.61;31.15
13050;BME280;6591;51.446;5.404;2023-07-02T09:59:31;100769.34;;;28.58;31.39
13050;BME280;6591;51.446;5.404;2023-07-02T10:01:58;100768.72;;;28.56;31.37
13050;BME280;6591;51.446;5.404;2023-07-02T10:04:26;100769.06;;;28.53;31.82
13050;BME280;6591;51.446;5.404;2023-07-02T10:06:57;100771.81;;;28.53;31.72
13050;BME280;6591;51.446;5.404;2023-07-02T10:09:44;100780.84;;;28.53;31.82
13050;BME280;6591;51.446;5.404;2023-07-02T10:12:26;100784.09;;;28.57;32.02
13050;BME280;6591;51.446;5.404;2023-07-02T10:14:57;100786.72;;;28.65;32.09
13050;BME280;6591;51.446;5.404;2023-07-02T10:17:33;100788.53;;;28.73;31.30
13050;BME280;6591;51.446;5.404;2023-07-02T10:20:06;100785.34;;;28.84;31.90
13050;BME280;6591;51.446;5.404;2023-07-02T10:22:45;100783.97;;;28.94;31.81
13050;BME280;6591;51.446;5.404;2023-07-02T10:25:26;100778.59;;;29.01;31.56
13050;BME280;6591;51.446;5.404;2023-07-02T10:27:54;100783.41;;;29.14;31.35
13050;BME280;6591;51.446;5.404;2023-07-02T10:30:37;100782.38;;;29.15;30.43
13050;BME280;6591;51.446;5.404;2023-07-02T10:33:16;100785.28;;;29.13;31.17
13050;BME280;6591;51.446;5.404;2023-07-02T10:35:47;100799.06;;;29.20;30.61
13050;BME280;6591;51.446;5.404;2023-07-02T10:38:24;100787.63;;;29.16;30.17
13050;BME280;6591;51.446;5.404;2023-07-02T10:40:59;100798.97;;;29.13;30.21
13050;BME280;6591;51.446;5.404;2023-07-02T10:43:31;100800.41;;;29.09;30.13
13050;BME280;6591;51.446;5.404;2023-07-02T10:46:00;100809.06;;;29.13;30.83
13050;BME280;6591;51.446;5.404;2023-07-02T10:48:29;100802.66;;;29.20;30.61
13050;BME280;6591;51.446;5.404;2023-07-02T10:51:13;100798.50;;;29.24;30.54
13050;BME280;6591;51.446;5.404;2023-07-02T10:54:00;100801.97;;;29.33;30.15
13050;BME280;6591;51.446;5.404;2023-07-02T10:56:29;100798.16;;;29.48;30.52
13050;BME280;6591;51.446;5.404;2023-07-02T10:58:58;100786.78;;;29.66;31.11
13050;BME280;6591;51.446;5.404;2023-07-02T11:01:28;100785.75;;;29.88;30.88
13050;BME280;6591;51.446;5.404;2023-07-02T11:04:02;100790.41;;;30.16;30.51
13050;BME280;6591;51.446;5.404;2023-07-02T11:06:32;100787.13;;;30.48;30.59
13050;BME280;6591;51.446;5.404;2023-07-02T11:09:00;100787.34;;;30.81;30.41
13050;BME280;6591;51.446;5.404;2023-07-02T11:11:27;100787.88;;;31.04;29.04
13050;BME280;6591;51.446;5.404;2023-07-02T11:13:55;100791.94;;;31.15;29.34
13050;BME280;6591;51.446;5.404;2023-07-02T11:16:28;100802.72;;;31.17;28.57
13050;BME280;6591;51.446;5.404;2023-07-02T11:19:09;100805.25;;;31.11;28.77
13050;BME280;6591;51.446;5.404;2023-07-02T11:21:50;100798.66;;;31.06;28.58
13050;BME280;6591;51.446;5.404;2023-07-02T11:24:37;100795.63;;;30.94;28.67
13050;BME280;6591;51.446;5.404;2023-07-02T11:27:06;100792.75;;;31.02;29.24
13050;BME280;6591;51.446;5.404;2023-07-02T11:29:35;100797.00;;;31.11;28.80
13050;BME280;6591;51.446;5.404;2023-07-02T11:32:11;100793.03;;;31.21;28.45
13050;BME280;6591;51.446;5.404;2023-07-02T11:34:39;100798.97;;;31.24;28.85
13050;BME280;6591;51.446;5.404;2023-07-02T11:37:06;100789.84;;;31.17;28.55
13050;BME280;6591;51.446;5.404;2023-07-02T11:39:34;100795.50;;;31.02;28.30
13050;BME280;6591;51.446;5.404;2023-07-02T11:42:01;100801.28;;;30.86;28.46
13050;BME280;6591;51.446;5.404;2023-07-02T11:44:31;100807.66;;;30.59;28.29
13050;BME280;6591;51.446;5.404;2023-07-02T11:47:01;100799.63;;;30.29;28.73
13050;BME280;6591;51.446;5.404;2023-07-02T11:49:32;100793.44;;;30.00;28.98
13050;BME280;6591;51.446;5.404;2023-07-02T11:51:59;100797.84;;;29.79;29.21
13050;BME280;6591;51.446;5.404;2023-07-02T11:54:27;100789.72;;;29.65;29.66
13050;BME280;6591;51.446;5.404;2023-07-02T11:56:54;100793.69;;;29.62;29.85
13050;BME280;6591;51.446;5.404;2023-07-02T11:59:21;100787.63;;;29.67;29.82
13050;BME280;6591;51.446;5.404;2023-07-02T12:01:48;100782.47;;;29.78;29.92
13050;BME280;6591;51.446;5.404;2023-07-02T12:04:15;100782.47;;;30.00;30.02
13050;BME280;6591;51.446;5.404;2023-07-02T12:06:43;100797.50;;;30.31;30.01
13050;BME280;6591;51.446;5.404;2023-07-02T12:09:10;100777.91;;;30.56;28.46
13050;BME280;6591;51.446;5.404;2023-07-02T12:11:37;100780.53;;;30.70;28.12
13050;BME280;6591;51.446;5.404;2023-07-02T12:14:05;100784.34;;;30.76;27.00
13050;BME280;6591;51.446;5.404;2023-07-02T12:16:32;100789.66;;;30.84;28.12
13050;BME280;6591;51.446;5.404;2023-07-02T12:18:59;100783.22;;;30.98;28.13
13050;BME280;6591;51.446;5.404;2023-07-02T12:21:26;100788.00;;;31.24;28.01
13050;BME280;6591;51.446;5.404;2023-07-02T12:23:57;100787.06;;;31.58;27.53
13050;BME280;6591;51.446;5.404;2023-07-02T12:26:24;100790.28;;;31.81;26.39
13050;BME280;6591;51.446;5.404;2023-07-02T12:28:51;100794.72;;;31.89;25.80
13050;BME280;6591;51.446;5.404;2023-07-02T12:31:24;100780.78;;;31.90;25.93
13050;BME280;6591;51.446;5.404;2023-07-02T12:34:03;100777.59;;;31.93;25.78
13050;BME280;6591;51.446;5.404;2023-07-02T12:36:41;100790.91;;;31.90;25.43
13050;BME280;6591;51.446;5.404;2023-07-02T12:39:12;100789.66;;;31.86;25.33
13050;BME280;6591;51.446;5.404;2023-07-02T12:41:56;100781.63;;;31.91;25.44
13050;BME280;6591;51.446;5.404;2023-07-02T12:44:24;100785.22;;;32.05;25.92
13050;BME280;6591;51.446;5.404;2023-07-02T12:46:55;100795.19;;;32.19;24.92
13050;BME280;6591;51.446;5.404;2023-07-02T12:49:28;100789.88;;;32.30;25.18
13050;BME280;6591;51.446;5.404;2023-07-02T12:51:55;100785.44;;;32.36;24.43
13050;BME280;6591;51.446;5.404;2023-07-02T12:54:23;100785.44;;;32.49;24.82
13050;BME280;6591;51.446;5.404;2023-07-02T12:56:53;100782.66;;;32.62;25.00
13050;BME280;6591;51.446;5.404;2023-07-02T12:59:21;100801.69;;;32.84;24.51
13050;BME280;6591;51.446;5.404;2023-07-02T13:01:49;100785.13;;;32.97;24.04
13050;BME280;6591;51.446;5.404;2023-07-02T13:04:17;100791.44;;;33.10;23.83
13050;BME280;6591;51.446;5.404;2023-07-02T13:06:44;100786.97;;;33.09;24.14
13050;BME280;6591;51.446;5.404;2023-07-02T13:09:12;100799.09;;;33.02;23.44
13050;BME280;6591;51.446;5.404;2023-07-02T13:11:40;100803.19;;;32.79;22.81
13050;BME280;6591;51.446;5.404;2023-07-02T13:14:11;100807.66;;;32.54;23.15
13050;BME280;6591;51.446;5.404;2023-07-02T13:16:38;100808.28;;;32.36;23.41
13050;BME280;6591;51.446;5.404;2023-07-02T13:19:08;100805.53;;;32.30;24.07
13050;BME280;6591;51.446;5.404;2023-07-02T13:21:38;100808.94;;;32.32;23.37
13050;BME280;6591;51.446;5.404;2023-07-02T13:24:47;100812.72;;;32.24;23.69